createdAt,value
2023-03-16T00:01:45.221Z,97038.41
2023-03-16T00:04:12.732Z,97042.47
2023-03-16T00:06:39.765Z,97045.91
2023-03-16T00:09:06.957Z,97052.63
2023-03-16T00:11:34.006Z,97055.86
2023-03-16T00:14:03.695Z,97053.18
2023-03-16T00:16:30.879Z,97056.42
2023-03-16T00:18:58.733Z,97063.50
2023-03-16T00:21:25.663Z,97064.54
2023-03-16T00:23:52.898Z,97067.75
2023-03-16T00:26:20.181Z,97071.42
2023-03-16T00:28:47.219Z,97075.70
2023-03-16T00:31:14.480Z,97072.82
2023-03-16T00:33:45.078Z,97066.81
2023-03-16T00:36:12.309Z,97064.47
2023-03-16T00:38:49.408Z,97064.52
2023-03-16T00:41:17.085Z,97066.89
2023-03-16T00:43:48.348Z,97063.27
2023-03-16T00:46:16.455Z,97062.69
2023-03-16T00:48:45.569Z,97064.70
2023-03-16T00:51:15.918Z,97063.09
2023-03-16T00:53:44.727Z,97064.59
2023-03-16T00:56:13.199Z,97066.61
2023-03-16T00:58:42.709Z,97065.39
2023-03-16T01:01:14.930Z,97064.52
2023-03-16T01:03:43.488Z,97067.63
2023-03-16T01:06:17.052Z,97068.03
2023-03-16T01:08:44.589Z,97064.17
2023-03-16T01:11:17.974Z,97068.37
2023-03-16T01:13:47.457Z,97070.56
2023-03-16T01:16:18.000Z,97070.69
2023-03-16T01:18:46.231Z,97077.01
2023-03-16T01:21:13.328Z,97076.09
2023-03-16T01:23:43.269Z,97072.30
2023-03-16T01:26:11.355Z,97069.84
2023-03-16T01:28:38.674Z,97072.42
2023-03-16T01:31:10.970Z,97073.37
2023-03-16T01:33:38.873Z,97074.12
2023-03-16T01:36:15.251Z,97074.14
2023-03-16T01:38:59.688Z,97076.96
2023-03-16T01:41:31.244Z,97080.69
2023-03-16T01:43:58.554Z,97081.65
2023-03-16T01:46:29.025Z,97083.25
2023-03-16T01:49:02.832Z,97083.94
2023-03-16T01:51:43.353Z,97083.05
2023-03-16T01:54:14.039Z,97084.86
2023-03-16T01:57:15.888Z,97091.73
2023-03-16T02:00:10.174Z,97093.16
2023-03-16T02:02:49.003Z,97097.29
2023-03-16T02:06:05.281Z,97098.77
2023-03-16T02:08:36.636Z,97105.92
2023-03-16T02:11:06.533Z,97105.31
2023-03-16T02:14:04.750Z,97108.41
2023-03-16T02:16:33.469Z,97111.05
2023-03-16T02:19:01.099Z,97108.30
2023-03-16T02:21:41.139Z,97114.17
2023-03-16T02:24:08.275Z,97119.98
2023-03-16T02:26:48.175Z,97125.38
2023-03-16T02:29:45.216Z,97124.66
2023-03-16T02:32:14.302Z,97126.42
2023-03-16T02:34:42.580Z,97128.73
2023-03-16T02:37:11.599Z,97131.09
2023-03-16T02:39:39.608Z,97133.42
2023-03-16T02:42:12.845Z,97132.59
2023-03-16T02:44:43.096Z,97132.45
2023-03-16T02:47:22.126Z,97133.01
2023-03-16T02:49:49.199Z,97139.17
2023-03-16T02:52:17.011Z,97139.21
2023-03-16T02:54:45.808Z,97140.19
2023-03-16T02:57:14.059Z,97141.79
2023-03-16T02:59:41.879Z,97145.42
2023-03-16T03:02:11.322Z,97148.17
2023-03-16T03:04:38.619Z,97151.23
2023-03-16T03:07:07.362Z,97152.91
2023-03-16T03:09:47.688Z,97156.13
2023-03-16T03:12:15.660Z,97158.27
2023-03-16T03:14:43.760Z,97160.70
2023-03-16T03:17:13.398Z,97162.83
2023-03-16T03:19:40.665Z,97167.28
2023-03-16T03:22:08.169Z,97171.72
2023-03-16T03:24:35.232Z,97173.60
2023-03-16T03:27:06.027Z,97177.48
2023-03-16T03:29:34.087Z,97180.46
2023-03-16T03:32:03.440Z,97183.48
2023-03-16T03:34:32.554Z,97188.66
2023-03-16T03:37:00.613Z,97191.98
2023-03-16T03:39:28.319Z,97190.41
2023-03-16T03:41:55.582Z,97193.95
2023-03-16T03:44:24.321Z,97197.72
2023-03-16T03:46:51.685Z,97202.19
2023-03-16T03:49:20.309Z,97207.83
2023-03-16T03:51:48.327Z,97213.25
2023-03-16T03:54:18.662Z,97215.23
2023-03-16T03:57:03.316Z,97215.92
2023-03-16T03:59:33.350Z,97214.58
2023-03-16T04:02:14.219Z,97216.27
2023-03-16T04:04:45.108Z,97221.02
2023-03-16T04:07:15.389Z,97226.75
2023-03-16T04:09:44.726Z,97228.34
2023-03-16T04:12:21.758Z,97232.20
2023-03-16T04:14:49.092Z,97237.47
2023-03-16T04:17:17.421Z,97240.04
2023-03-16T04:19:45.875Z,97243.36
2023-03-16T04:22:18.259Z,97245.25
2023-03-16T04:24:48.509Z,97247.95
2023-03-16T04:27:15.594Z,97254.31
2023-03-16T04:29:43.606Z,97258.25
2023-03-16T04:32:11.392Z,97258.80
2023-03-16T04:34:43.218Z,97264.14
2023-03-16T04:37:11.373Z,97266.05
2023-03-16T04:39:40.182Z,97271.97
2023-03-16T04:42:07.403Z,97273.34
2023-03-16T04:44:45.206Z,97274.23
2023-03-16T04:47:17.067Z,97282.03
2023-03-16T04:49:45.181Z,97286.97
2023-03-16T04:52:13.046Z,97287.84
2023-03-16T04:54:40.879Z,97286.20
2023-03-16T04:57:10.032Z,97286.81
2023-03-16T04:59:47.590Z,97289.52
2023-03-16T05:02:41.535Z,97292.36
2023-03-16T05:05:09.877Z,97296.73
2023-03-16T05:07:48.245Z,97300.00
2023-03-16T05:10:19.633Z,97304.33
2023-03-16T05:12:47.899Z,97313.20
2023-03-16T05:15:16.845Z,97319.29
2023-03-16T05:17:47.740Z,97323.23
2023-03-16T05:20:16.319Z,97328.64
2023-03-16T05:22:52.049Z,97334.69
2023-03-16T05:25:30.028Z,97338.88
2023-03-16T05:28:01.645Z,97346.61
2023-03-16T05:30:38.020Z,97349.47
2023-03-16T05:33:14.395Z,97348.55
2023-03-16T05:35:42.583Z,97348.98
2023-03-16T05:38:12.785Z,97346.16
2023-03-16T05:40:41.925Z,97346.04
2023-03-16T05:43:18.606Z,97340.92
2023-03-16T05:45:49.841Z,97343.36
2023-03-16T05:48:26.209Z,97346.92
2023-03-16T05:50:55.660Z,97350.09
2023-03-16T05:53:30.215Z,97356.63
2023-03-16T05:56:06.007Z,97361.86
2023-03-16T05:58:34.841Z,97363.75
2023-03-16T06:01:05.888Z,97367.55
2023-03-16T06:03:33.161Z,97370.78
2023-03-16T06:06:02.017Z,97378.87
2023-03-16T06:08:50.242Z,97381.95
2023-03-16T06:11:19.616Z,97388.87
2023-03-16T06:13:48.902Z,97395.69
2023-03-16T06:16:16.922Z,97395.43
2023-03-16T06:18:44.977Z,97401.86
2023-03-16T06:21:20.973Z,97404.59
2023-03-16T06:24:30.659Z,97407.23
2023-03-16T06:27:18.288Z,97413.55
2023-03-16T06:29:58.046Z,97418.81
2023-03-16T06:32:33.342Z,97423.13
2023-03-16T06:35:06.372Z,97425.92
2023-03-16T06:37:38.001Z,97426.67
2023-03-16T06:40:32.745Z,97432.95
2023-03-16T06:43:06.524Z,97438.38
2023-03-16T06:45:41.559Z,97446.80
2023-03-16T06:48:13.724Z,97456.17
2023-03-16T06:50:49.879Z,97461.20
2023-03-16T06:53:26.669Z,97465.77
2023-03-16T06:55:57.608Z,97470.35
2023-03-16T06:58:29.163Z,97472.96
2023-03-16T07:01:05.870Z,97477.39
2023-03-16T07:03:39.335Z,97477.98
2023-03-16T07:06:32.937Z,97483.60
2023-03-16T07:09:02.584Z,97488.16
2023-03-16T07:11:32.802Z,97491.85
2023-03-16T07:14:08.074Z,97491.13
2023-03-16T07:16:36.715Z,97495.53
2023-03-16T07:19:07.211Z,97493.95
2023-03-16T07:21:40.309Z,97496.30
2023-03-16T07:24:12.597Z,97497.92
2023-03-16T07:26:46.105Z,97502.84
2023-03-16T07:29:21.659Z,97507.48
2023-03-16T07:31:49.488Z,97508.05
2023-03-16T07:34:20.628Z,97508.32
2023-03-16T07:36:53.304Z,97509.31
2023-03-16T07:39:21.723Z,97513.17
2023-03-16T07:41:50.785Z,97516.50
2023-03-16T07:44:21.731Z,97520.59
2023-03-16T07:46:49.629Z,97523.65
2023-03-16T07:49:17.487Z,97524.55
2023-03-16T07:51:47.730Z,97530.10
2023-03-16T07:54:19.314Z,97536.40
2023-03-16T07:56:49.660Z,97540.48
2023-03-16T07:59:35.831Z,97543.71
2023-03-16T08:02:04.081Z,97546.20
2023-03-16T08:04:32.162Z,97546.23
2023-03-16T08:07:03.135Z,97544.39
2023-03-16T08:09:46.319Z,97545.78
2023-03-16T08:12:16.683Z,97551.27
2023-03-16T08:14:45.903Z,97556.95
2023-03-16T08:17:17.708Z,97556.30
2023-03-16T08:19:46.090Z,97558.13
2023-03-16T08:22:14.527Z,97560.00
2023-03-16T08:24:44.072Z,97565.24
2023-03-16T08:27:12.910Z,97565.23
2023-03-16T08:29:43.494Z,97567.26
2023-03-16T08:32:14.256Z,97568.62
2023-03-16T08:34:45.677Z,97573.08
2023-03-16T08:37:16.457Z,97575.69
2023-03-16T08:39:46.111Z,97577.92
2023-03-16T08:42:19.371Z,97583.44
2023-03-16T08:44:53.408Z,97585.27
2023-03-16T08:47:24.164Z,97586.71
2023-03-16T08:49:57.464Z,97588.69
2023-03-16T08:52:27.540Z,97592.74
2023-03-16T08:55:03.586Z,97595.27
2023-03-16T08:57:33.229Z,97596.76
2023-03-16T09:00:12.218Z,97601.73
2023-03-16T09:02:43.627Z,97601.95
2023-03-16T09:05:15.712Z,97600.23
2023-03-16T09:07:43.253Z,97605.13
2023-03-16T09:10:15.661Z,97609.02
2023-03-16T09:12:43.472Z,97609.80
2023-03-16T09:15:16.011Z,97610.34
2023-03-16T09:17:44.603Z,97617.92
2023-03-16T09:20:35.043Z,97621.77
2023-03-16T09:23:03.104Z,97625.29
2023-03-16T09:25:38.872Z,97628.17
2023-03-16T09:28:06.874Z,97634.01
2023-03-16T09:30:35.477Z,97638.96
2023-03-16T09:33:03.721Z,97644.39
2023-03-16T09:35:33.713Z,97648.66
2023-03-16T09:38:05.997Z,97652.33
2023-03-16T09:40:37.842Z,97658.36
2023-03-16T09:43:08.637Z,97662.89
2023-03-16T09:46:12.375Z,97666.81
2023-03-16T09:48:41.995Z,97669.96
2023-03-16T09:51:34.687Z,97674.35
2023-03-16T09:54:16.404Z,97678.31
2023-03-16T09:56:46.619Z,97678.02
2023-03-16T09:59:17.887Z,97683.96
2023-03-16T10:02:24.020Z,97685.69
2023-03-16T10:05:20.177Z,97686.44
2023-03-16T10:08:28.412Z,97688.12
2023-03-16T10:11:02.576Z,97688.33
2023-03-16T10:13:48.475Z,97693.55
2023-03-16T10:16:44.601Z,97698.38
2023-03-16T10:19:34.101Z,97698.98
2023-03-16T10:22:26.495Z,97699.77
2023-03-16T10:25:12.154Z,97706.39
2023-03-16T10:27:47.922Z,97709.59
2023-03-16T10:30:28.394Z,97712.33
2023-03-16T10:33:02.659Z,97709.78
2023-03-16T10:36:08.987Z,97715.44
2023-03-16T10:38:42.541Z,97715.52
2023-03-16T10:41:32.398Z,97717.56
2023-03-16T10:44:08.205Z,97719.60
2023-03-16T10:46:47.828Z,97720.38
2023-03-16T10:49:27.526Z,97716.69
2023-03-16T10:52:01.534Z,97720.66
2023-03-16T10:54:39.191Z,97724.61
2023-03-16T10:57:20.335Z,97721.88
2023-03-16T10:59:59.179Z,97721.33
2023-03-16T11:02:33.941Z,97722.42
2023-03-16T11:05:31.928Z,97722.50
2023-03-16T11:08:11.779Z,97727.01
2023-03-16T11:10:55.611Z,97730.97
2023-03-16T11:13:33.410Z,97732.87
2023-03-16T11:16:27.421Z,97736.30
2023-03-16T11:19:17.436Z,97736.06
2023-03-16T11:22:01.712Z,97734.39
2023-03-16T11:24:37.115Z,97739.67
2023-03-16T11:27:12.441Z,97743.73
2023-03-16T11:29:51.310Z,97739.45
2023-03-16T11:32:28.244Z,97741.59
2023-03-16T11:34:58.139Z,97741.36
2023-03-16T11:37:53.220Z,97741.65
2023-03-16T11:40:42.166Z,97745.81
2023-03-16T11:43:28.417Z,97747.78
2023-03-16T11:46:23.801Z,97748.55
2023-03-16T11:49:06.163Z,97748.85
2023-03-16T11:52:08.769Z,97752.12
2023-03-16T11:54:58.004Z,97754.67
2023-03-16T11:57:55.294Z,97756.56
2023-03-16T12:00:59.814Z,97756.66
2023-03-16T12:03:36.874Z,97762.79
2023-03-16T12:06:28.921Z,97767.46
2023-03-16T12:09:34.397Z,97770.65
2023-03-16T12:12:23.569Z,97770.35
2023-03-16T12:15:06.249Z,97769.97
2023-03-16T12:17:37.236Z,97771.10
2023-03-16T12:20:18.079Z,97775.02
2023-03-16T12:23:00.234Z,97777.29
2023-03-16T12:25:36.599Z,97780.78
2023-03-16T12:28:10.473Z,97779.10
2023-03-16T12:30:59.560Z,97784.52
2023-03-16T12:33:40.909Z,97783.21
2023-03-16T12:36:14.137Z,97788.09
2023-03-16T12:38:54.019Z,97790.95
2023-03-16T12:41:52.637Z,97792.40
2023-03-16T12:44:39.910Z,97791.20
2023-03-16T12:47:47.834Z,97791.81
2023-03-16T12:50:19.227Z,97792.13
2023-03-16T12:52:51.299Z,97792.69
2023-03-16T12:55:39.439Z,97795.70
2023-03-16T12:58:09.103Z,97804.98
2023-03-16T13:00:40.476Z,97799.34
2023-03-16T13:03:20.536Z,97801.80
2023-03-16T13:05:55.356Z,97804.31
2023-03-16T13:08:22.970Z,97805.50
2023-03-16T13:11:05.803Z,97807.66
2023-03-16T13:13:33.787Z,97814.11
2023-03-16T13:16:25.154Z,97817.45
2023-03-16T13:18:52.653Z,97818.60
2023-03-16T13:21:33.202Z,97821.86
2023-03-16T13:24:28.341Z,97821.80
2023-03-16T13:27:03.611Z,97821.29
2023-03-16T13:29:32.492Z,97824.92
2023-03-16T13:32:16.925Z,97826.32
2023-03-16T13:34:51.552Z,97829.73
2023-03-16T13:37:21.375Z,97832.84
2023-03-16T13:39:59.256Z,97837.66
2023-03-16T13:42:31.511Z,97842.99
2023-03-16T13:45:08.049Z,97843.92
2023-03-16T13:47:35.495Z,97845.29
2023-03-16T13:50:02.459Z,97845.04
2023-03-16T13:52:32.755Z,97847.05
2023-03-16T13:55:03.268Z,97849.77
2023-03-16T13:57:37.071Z,97848.66
2023-03-16T14:00:12.949Z,97853.11
2023-03-16T14:02:45.042Z,97857.30
2023-03-16T14:05:19.501Z,97860.75
2023-03-16T14:07:49.206Z,97862.88
2023-03-16T14:10:17.326Z,97862.39
2023-03-16T14:12:52.810Z,97866.48
2023-03-16T14:15:21.933Z,97871.84
2023-03-16T14:17:53.417Z,97877.04
2023-03-16T14:20:27.128Z,97878.69
2023-03-16T14:22:54.436Z,97881.45
2023-03-16T14:25:26.782Z,97884.21
2023-03-16T14:28:06.793Z,97888.11
2023-03-16T14:30:34.457Z,97893.06
2023-03-16T14:33:11.039Z,97898.44
2023-03-16T14:35:43.413Z,97902.44
2023-03-16T14:38:28.395Z,97904.73
2023-03-16T14:41:05.007Z,97905.29
2023-03-16T14:43:40.618Z,97910.31
2023-03-16T14:46:13.348Z,97911.52
2023-03-16T14:48:41.856Z,97913.36
2023-03-16T14:51:14.440Z,97915.05
2023-03-16T14:53:43.111Z,97918.73
2023-03-16T14:56:13.315Z,97917.63
2023-03-16T14:58:43.463Z,97918.65
2023-03-16T15:01:20.326Z,97923.76
2023-03-16T15:03:48.162Z,97926.31
2023-03-16T15:06:15.929Z,97924.12
2023-03-16T15:08:50.295Z,97928.95
2023-03-16T15:11:21.624Z,97929.86
2023-03-16T15:13:51.353Z,97931.98
2023-03-16T15:16:23.946Z,97932.16
2023-03-16T15:18:54.453Z,97934.22
2023-03-16T15:21:28.993Z,97935.78
2023-03-16T15:24:00.592Z,97937.22
2023-03-16T15:26:29.151Z,97938.23
2023-03-16T15:28:58.020Z,97941.58
2023-03-16T15:31:26.055Z,97945.61
2023-03-16T15:33:52.932Z,97949.39
2023-03-16T15:36:24.283Z,97953.02
2023-03-16T15:38:54.400Z,97959.09
2023-03-16T15:41:24.120Z,97957.13
2023-03-16T15:43:52.131Z,97959.02
2023-03-16T15:46:20.245Z,97960.30
2023-03-16T15:48:47.377Z,97966.14
2023-03-16T15:51:26.703Z,97969.27
2023-03-16T15:53:58.875Z,97969.75
2023-03-16T15:56:29.726Z,97972.61
2023-03-16T15:59:04.326Z,97978.64
2023-03-16T16:01:47.478Z,97978.02
2023-03-16T16:04:19.113Z,97982.39
2023-03-16T16:06:47.803Z,97985.77
2023-03-16T16:09:15.262Z,97990.03
2023-03-16T16:11:42.502Z,97991.11
2023-03-16T16:14:21.526Z,97995.39
2023-03-16T16:16:48.620Z,98003.52
2023-03-16T16:19:16.761Z,98008.13
2023-03-16T16:21:43.748Z,98009.76
2023-03-16T16:24:11.634Z,98013.02
2023-03-16T16:26:52.015Z,98016.52
2023-03-16T16:29:28.323Z,98020.61
2023-03-16T16:31:55.760Z,98023.36
2023-03-16T16:34:24.154Z,98024.55
2023-03-16T16:36:51.443Z,98031.04
2023-03-16T16:39:20.619Z,98036.71
2023-03-16T16:41:50.862Z,98038.09
2023-03-16T16:44:23.977Z,98043.56
2023-03-16T16:46:53.193Z,98046.88
2023-03-16T16:49:27.371Z,98053.60
2023-03-16T16:51:55.584Z,98055.08
2023-03-16T16:54:29.241Z,98058.79
2023-03-16T16:56:58.439Z,98061.94
2023-03-16T16:59:30.891Z,98064.21
2023-03-16T17:02:13.045Z,98070.98
2023-03-16T17:04:40.647Z,98075.38
2023-03-16T17:07:12.508Z,98072.89
2023-03-16T17:09:39.492Z,98071.44
2023-03-16T17:12:16.835Z,98071.85
2023-03-16T17:14:44.346Z,98080.02
2023-03-16T17:17:17.283Z,98084.47
2023-03-16T17:19:46.255Z,98085.59
2023-03-16T17:22:23.978Z,98089.23
2023-03-16T17:24:54.605Z,98089.85
2023-03-16T17:27:26.192Z,98090.98
2023-03-16T17:29:54.285Z,98093.69
2023-03-16T17:32:23.088Z,98096.61
2023-03-16T17:34:51.935Z,98097.73
2023-03-16T17:37:21.663Z,98100.07
2023-03-16T17:39:48.815Z,98101.91
2023-03-16T17:42:18.458Z,98103.33
2023-03-16T17:44:48.822Z,98106.55
2023-03-16T17:47:18.005Z,98109.51
2023-03-16T17:49:48.068Z,98113.06
2023-03-16T17:52:18.187Z,98114.13
2023-03-16T17:54:46.996Z,98116.55
2023-03-16T17:57:21.578Z,98120.32
2023-03-16T17:59:48.621Z,98123.40
2023-03-16T18:02:34.547Z,98125.77
2023-03-16T18:05:01.497Z,98125.95
2023-03-16T18:07:28.663Z,98130.21
2023-03-16T18:09:55.712Z,98136.13
2023-03-16T18:12:22.722Z,98137.32
2023-03-16T18:14:49.864Z,98136.20
2023-03-16T18:17:28.011Z,98135.56
2023-03-16T18:19:55.238Z,98137.51
2023-03-16T18:22:24.107Z,98137.54
2023-03-16T18:24:53.390Z,98137.25
2023-03-16T18:27:21.499Z,98142.57
2023-03-16T18:29:48.524Z,98142.57
2023-03-16T18:32:24.662Z,98146.06
2023-03-16T18:34:52.062Z,98149.33
2023-03-16T18:37:23.275Z,98150.17
2023-03-16T18:39:52.397Z,98150.39
2023-03-16T18:42:21.698Z,98154.00
2023-03-16T18:44:49.711Z,98155.17
2023-03-16T18:47:21.569Z,98157.48
2023-03-16T18:49:52.782Z,98159.19
2023-03-16T18:52:26.288Z,98161.63
2023-03-16T18:54:55.044Z,98163.90
2023-03-16T18:57:25.835Z,98167.83
2023-03-16T18:59:53.811Z,98168.00
2023-03-16T19:02:38.371Z,98171.86
2023-03-16T19:05:19.381Z,98172.61
2023-03-16T19:07:50.359Z,98173.79
2023-03-16T19:10:27.537Z,98178.59
2023-03-16T19:12:54.919Z,98178.81
2023-03-16T19:15:23.497Z,98183.12
2023-03-16T19:17:50.955Z,98191.71
2023-03-16T19:20:21.293Z,98187.09
2023-03-16T19:22:50.684Z,98192.23
2023-03-16T19:25:24.054Z,98197.76
2023-03-16T19:27:52.450Z,98197.66
2023-03-16T19:30:28.609Z,98198.72
2023-03-16T19:32:57.492Z,98203.66
2023-03-16T19:35:44.916Z,98210.01
2023-03-16T19:38:17.588Z,98209.77
2023-03-16T19:40:46.892Z,98210.81
2023-03-16T19:43:17.823Z,98214.23
2023-03-16T19:45:46.983Z,98216.91
2023-03-16T19:48:32.164Z,98219.17
2023-03-16T19:50:59.740Z,98222.32
2023-03-16T19:53:26.878Z,98225.23
2023-03-16T19:55:54.222Z,98225.98
2023-03-16T19:58:32.778Z,98224.50
2023-03-16T20:01:00.578Z,98228.11
2023-03-16T20:03:31.222Z,98228.91
2023-03-16T20:05:58.150Z,98230.95
2023-03-16T20:08:27.989Z,98234.96
2023-03-16T20:11:01.174Z,98235.98
2023-03-16T20:13:30.689Z,98240.79
2023-03-16T20:15:57.602Z,98241.00
2023-03-16T20:18:25.160Z,98244.27
2023-03-16T20:20:52.237Z,98240.05
2023-03-16T20:23:28.560Z,98241.70
2023-03-16T20:26:01.430Z,98244.59
2023-03-16T20:28:35.732Z,98243.57
2023-03-16T20:31:07.364Z,98246.11
2023-03-16T20:33:34.309Z,98249.96
2023-03-16T20:36:01.333Z,98250.34
2023-03-16T20:38:28.839Z,98248.98
2023-03-16T20:40:56.048Z,98251.10
2023-03-16T20:43:24.801Z,98254.80
2023-03-16T20:45:57.321Z,98258.78
2023-03-16T20:48:25.447Z,98262.36
2023-03-16T20:50:57.505Z,98269.07
2023-03-16T20:53:24.628Z,98275.02
2023-03-16T20:55:54.063Z,98276.66
2023-03-16T20:58:27.556Z,98275.65
2023-03-16T21:01:00.398Z,98280.86
2023-03-16T21:03:29.965Z,98283.20
2023-03-16T21:05:59.784Z,98281.20
2023-03-16T21:08:27.273Z,98283.38
2023-03-16T21:10:56.597Z,98288.41
2023-03-16T21:13:32.654Z,98288.45
2023-03-16T21:16:01.796Z,98285.52
2023-03-16T21:18:30.035Z,98286.23
2023-03-16T21:20:57.727Z,98289.96
2023-03-16T21:23:24.869Z,98292.08
2023-03-16T21:26:01.019Z,98293.30
2023-03-16T21:28:31.892Z,98296.95
2023-03-16T21:31:00.076Z,98295.38
2023-03-16T21:33:38.449Z,98297.59
2023-03-16T21:36:18.086Z,98298.35
2023-03-16T21:38:46.614Z,98299.48
2023-03-16T21:41:14.411Z,98302.33
2023-03-16T21:43:42.452Z,98303.31
2023-03-16T21:46:18.283Z,98303.52
2023-03-16T21:48:49.160Z,98310.66
2023-03-16T21:51:18.809Z,98313.31
2023-03-16T21:53:48.198Z,98314.23
2023-03-16T21:56:17.986Z,98310.32
2023-03-16T21:58:45.957Z,98310.31
2023-03-16T22:01:28.299Z,98312.73
2023-03-16T22:03:58.228Z,98313.71
2023-03-16T22:06:27.532Z,98318.03
2023-03-16T22:08:55.921Z,98319.41
2023-03-16T22:11:27.552Z,98320.19
2023-03-16T22:13:56.635Z,98320.55
2023-03-16T22:16:27.286Z,98320.66
2023-03-16T22:18:57.442Z,98322.06
2023-03-16T22:21:39.349Z,98321.09
2023-03-16T22:24:14.723Z,98323.14
2023-03-16T22:26:42.006Z,98326.03
2023-03-16T22:29:22.879Z,98330.83
2023-03-16T22:31:53.125Z,98333.09
2023-03-16T22:34:51.335Z,98336.23
2023-03-16T22:37:22.511Z,98341.14
2023-03-16T22:39:49.965Z,98344.80
2023-03-16T22:42:36.578Z,98344.23
2023-03-16T22:45:18.146Z,98349.02
2023-03-16T22:47:47.168Z,98356.48
2023-03-16T22:50:16.069Z,98355.13
2023-03-16T22:52:45.934Z,98356.17
2023-03-16T22:55:21.080Z,98356.64
2023-03-16T22:58:00.749Z,98357.95
2023-03-16T23:00:28.222Z,98358.85
2023-03-16T23:02:56.271Z,98363.10
2023-03-16T23:05:27.832Z,98364.77
2023-03-16T23:07:57.243Z,98368.66
2023-03-16T23:10:27.967Z,98371.29
2023-03-16T23:12:56.051Z,98373.04
2023-03-16T23:15:25.686Z,98375.71
2023-03-16T23:17:52.728Z,98377.81
2023-03-16T23:20:29.816Z,98379.44
2023-03-16T23:22:57.007Z,98382.51
2023-03-16T23:25:24.343Z,98384.89
2023-03-16T23:27:52.009Z,98388.22
2023-03-16T23:30:25.134Z,98386.36
2023-03-16T23:32:53.658Z,98387.40
2023-03-16T23:35:23.167Z,98388.31
2023-03-16T23:37:51.060Z,98390.42
2023-03-16T23:40:20.033Z,98394.84
2023-03-16T23:42:48.260Z,98399.25
2023-03-16T23:45:24.376Z,98403.16
2023-03-16T23:47:55.309Z,98403.11
2023-03-16T23:50:28.671Z,98406.25
2023-03-16T23:52:56.052Z,98406.48
2023-03-16T23:55:24.213Z,98399.91
2023-03-16T23:57:51.234Z,98399.69
